createdAt,value
2019-01-10T00:01:01.881Z,3.60
2019-01-10T00:06:07.330Z,3.10
2019-01-10T00:11:12.922Z,2.27
2019-01-10T00:16:18.534Z,2.50
2019-01-10T00:21:24.438Z,2.40
2019-01-10T00:26:30.270Z,2.27
2019-01-10T00:31:36.498Z,2.80
2019-01-10T00:36:42.649Z,2.13
2019-01-10T00:41:49.116Z,2.77
2019-01-10T00:46:54.715Z,2.87
2019-01-10T00:51:59.969Z,2.80
2019-01-10T00:57:06.325Z,3.30
2019-01-10T01:02:11.866Z,2.77
2019-01-10T01:07:17.769Z,3.00
2019-01-10T01:12:23.417Z,2.67
2019-01-10T01:17:28.621Z,2.33
2019-01-10T01:22:34.362Z,2.10
2019-01-10T01:27:40.114Z,1.70
2019-01-10T01:32:45.581Z,1.30
2019-01-10T01:37:52.250Z,1.27
2019-01-10T01:43:07.093Z,0.93
2019-01-10T01:48:03.598Z,1.60
2019-01-10T01:53:08.960Z,1.30
2019-01-10T01:58:14.421Z,1.50
2019-01-10T02:03:20.608Z,1.40
2019-01-10T02:08:26.009Z,1.23
2019-01-10T02:13:31.422Z,1.17
2019-01-10T02:18:37.075Z,1.00
2019-01-10T02:23:43.032Z,1.20
2019-01-10T02:28:49.259Z,1.10
2019-01-10T02:33:54.988Z,1.00
2019-01-10T02:39:00.464Z,1.00
2019-01-10T02:44:06.511Z,0.90
2019-01-10T02:49:11.723Z,1.20
2019-01-10T02:54:17.262Z,1.20
2019-01-10T02:59:23.126Z,1.07
2019-01-10T03:04:28.965Z,1.10
2019-01-10T03:09:35.130Z,1.10
2019-01-10T03:14:40.662Z,1.50
2019-01-10T03:19:46.263Z,1.50
2019-01-10T03:24:52.043Z,1.27
2019-01-10T03:29:57.666Z,1.50
2019-01-10T03:35:03.886Z,1.13
2019-01-10T03:40:13.358Z,1.50
2019-01-10T03:45:21.094Z,1.33
2019-01-10T03:50:26.525Z,1.00
2019-01-10T03:55:32.298Z,1.43
2019-01-10T04:00:37.776Z,1.30
2019-01-10T04:05:43.161Z,1.27
2019-01-10T04:10:48.559Z,1.20
2019-01-10T04:15:54.700Z,1.50
2019-01-10T04:21:00.593Z,1.20
2019-01-10T04:26:06.902Z,1.57
2019-01-10T04:31:12.795Z,1.40
2019-01-10T04:36:18.182Z,1.50
2019-01-10T04:41:23.583Z,1.30
2019-01-10T04:46:28.931Z,1.50
2019-01-10T04:51:34.655Z,1.40
2019-01-10T04:56:40.169Z,1.37
2019-01-10T05:01:45.634Z,0.90
2019-01-10T05:06:51.485Z,1.40
2019-01-10T05:11:56.962Z,1.40
2019-01-10T05:17:02.229Z,1.10
2019-01-10T05:22:08.146Z,1.10
2019-01-10T05:27:13.749Z,1.20
2019-01-10T05:32:19.823Z,1.73
2019-01-10T05:37:25.576Z,1.23
2019-01-10T05:42:31.057Z,1.33
2019-01-10T05:47:36.299Z,1.50
2019-01-10T05:52:42.283Z,1.40
2019-01-10T05:57:47.841Z,1.13
2019-01-10T06:02:53.206Z,1.40
2019-01-10T06:07:58.560Z,1.60
2019-01-10T06:13:04.454Z,1.47
2019-01-10T06:18:09.770Z,1.30
2019-01-10T06:23:15.026Z,1.50
2019-01-10T06:28:20.713Z,1.30
2019-01-10T06:33:26.182Z,1.40
2019-01-10T06:38:31.830Z,1.33
2019-01-10T06:43:37.099Z,1.43
2019-01-10T06:48:42.872Z,1.50
2019-01-10T06:53:48.262Z,1.40
2019-01-10T06:58:54.130Z,1.73
2019-01-10T07:03:59.327Z,1.90
2019-01-10T07:09:07.018Z,1.60
2019-01-10T07:14:12.766Z,1.80
2019-01-10T07:19:23.995Z,2.30
2019-01-10T07:24:30.092Z,2.60
2019-01-10T07:29:35.530Z,1.80
2019-01-10T07:34:41.614Z,1.70
2019-01-10T07:39:47.002Z,1.80
2019-01-10T07:44:52.746Z,2.23
2019-01-10T07:50:02.009Z,2.07
2019-01-10T07:55:07.458Z,2.03
2019-01-10T08:00:14.838Z,1.90
2019-01-10T08:05:20.693Z,2.30
2019-01-10T08:10:26.185Z,1.90
2019-01-10T08:15:32.586Z,2.03
2019-01-10T08:20:38.430Z,2.53
2019-01-10T08:25:44.433Z,2.03
2019-01-10T08:30:50.192Z,2.17
2019-01-10T08:35:55.639Z,1.70
2019-01-10T08:41:01.481Z,1.80
2019-01-10T08:46:07.168Z,2.10
2019-01-10T08:51:12.993Z,1.90
2019-01-10T08:56:19.208Z,1.77
2019-01-10T09:01:24.683Z,1.33
2019-01-10T09:06:30.863Z,1.70
2019-01-10T09:11:37.034Z,1.90
2019-01-10T09:16:42.758Z,2.10
2019-01-10T09:21:49.594Z,1.50
2019-01-10T09:26:55.586Z,2.07
2019-01-10T09:32:01.628Z,1.43
2019-01-10T09:37:08.225Z,1.47
2019-01-10T09:42:14.243Z,1.70
2019-01-10T09:47:19.980Z,2.87
2019-01-10T09:52:25.606Z,2.03
2019-01-10T09:57:30.999Z,2.20
2019-01-10T10:02:39.618Z,2.00
2019-01-10T10:07:46.921Z,1.70
2019-01-10T10:12:52.702Z,1.60
2019-01-10T10:17:58.605Z,1.50
2019-01-10T10:23:04.239Z,1.50
2019-01-10T10:28:10.340Z,1.93
2019-01-10T10:33:15.838Z,1.73
2019-01-10T10:38:21.374Z,1.53
2019-01-10T10:43:27.094Z,2.00
2019-01-10T10:48:32.854Z,1.93
2019-01-10T10:53:39.245Z,1.50
2019-01-10T10:58:45.083Z,1.53
2019-01-10T11:03:50.567Z,2.00
2019-01-10T11:08:56.486Z,1.70
2019-01-10T11:14:01.943Z,1.63
2019-01-10T11:19:07.151Z,2.17
2019-01-10T11:24:12.534Z,1.97
2019-01-10T11:29:18.274Z,1.57
2019-01-10T11:34:23.662Z,1.33
2019-01-10T11:39:29.754Z,1.67
2019-01-10T11:44:35.138Z,1.40
2019-01-10T11:49:40.526Z,1.50
2019-01-10T11:54:46.290Z,1.40
2019-01-10T11:59:52.151Z,1.50
2019-01-10T12:04:57.922Z,1.57
2019-01-10T12:10:03.638Z,1.30
2019-01-10T12:15:09.446Z,1.33
2019-01-10T12:20:15.715Z,1.10
2019-01-10T12:25:21.585Z,1.03
2019-01-10T12:30:27.990Z,1.00
2019-01-10T12:35:33.390Z,1.30
2019-01-10T12:40:39.123Z,1.40
2019-01-10T12:45:44.995Z,1.20
2019-01-10T12:50:50.886Z,1.50
2019-01-10T12:55:56.635Z,1.33
2019-01-10T13:01:02.022Z,1.53
2019-01-10T13:06:07.570Z,1.30
2019-01-10T13:11:13.473Z,1.20
2019-01-10T13:16:18.954Z,1.40
2019-01-10T13:21:24.180Z,1.20
2019-01-10T13:26:29.970Z,1.27
2019-01-10T13:31:35.376Z,1.70
2019-01-10T13:36:41.632Z,2.20
2019-01-10T13:41:46.912Z,1.80
2019-01-10T13:46:55.750Z,1.93
2019-01-10T13:51:58.354Z,2.00
2019-01-10T13:57:03.899Z,1.70
2019-01-10T14:02:09.311Z,1.90
2019-01-10T14:07:15.429Z,1.70
2019-01-10T14:12:21.202Z,1.90
2019-01-10T14:17:26.446Z,1.53
2019-01-10T14:22:32.050Z,1.40
2019-01-10T14:27:37.441Z,1.50
2019-01-10T14:32:43.018Z,1.40
2019-01-10T14:37:48.621Z,1.20
2019-01-10T14:42:53.856Z,1.30
2019-01-10T14:48:01.875Z,1.60
2019-01-10T14:53:05.197Z,1.50
2019-01-10T14:58:10.619Z,1.50
2019-01-10T15:03:16.023Z,1.63
2019-01-10T15:08:21.907Z,2.20
2019-01-10T15:13:28.011Z,1.97
2019-01-10T15:18:33.210Z,2.47
2019-01-10T15:23:38.746Z,2.00
2019-01-10T15:28:44.470Z,1.83
2019-01-10T15:33:50.576Z,1.83
2019-01-10T15:38:55.979Z,2.27
2019-01-10T15:44:01.796Z,1.73
2019-01-10T15:49:07.066Z,2.00
2019-01-10T15:54:12.874Z,1.83
2019-01-10T15:59:18.317Z,1.57
2019-01-10T16:04:24.266Z,1.40
2019-01-10T16:09:29.751Z,1.50
2019-01-10T16:14:34.965Z,1.77
2019-01-10T16:19:41.336Z,2.70
2019-01-10T16:24:47.115Z,1.90
2019-01-10T16:29:53.565Z,1.70
2019-01-10T16:34:58.576Z,1.67
2019-01-10T16:40:03.923Z,2.00
2019-01-10T16:45:14.317Z,2.50
2019-01-10T16:50:19.938Z,2.60
2019-01-10T16:55:25.362Z,2.47
2019-01-10T17:00:34.034Z,2.30
2019-01-10T17:05:39.917Z,3.27
2019-01-10T17:10:45.130Z,2.20
2019-01-10T17:15:50.322Z,1.97
2019-01-10T17:20:55.526Z,2.30
2019-01-10T17:26:01.278Z,2.07
2019-01-10T17:31:07.258Z,2.00
2019-01-10T17:36:18.317Z,3.60
2019-01-10T17:41:18.414Z,3.40
2019-01-10T17:46:23.616Z,3.47
2019-01-10T17:51:28.814Z,3.87
2019-01-10T17:56:34.570Z,5.00
2019-01-10T18:01:41.337Z,4.53
2019-01-10T18:06:46.153Z,4.50
2019-01-10T18:11:51.606Z,4.17
2019-01-10T18:16:57.191Z,4.10
2019-01-10T18:22:03.158Z,4.30
2019-01-10T18:27:09.587Z,4.20
2019-01-10T18:32:16.375Z,4.20
2019-01-10T18:37:21.142Z,4.13
2019-01-10T18:42:26.362Z,3.87
2019-01-10T18:47:31.926Z,5.27
2019-01-10T18:52:38.402Z,6.70
2019-01-10T18:57:43.815Z,5.47
2019-01-10T19:02:49.567Z,5.80
2019-01-10T19:07:54.978Z,6.77
2019-01-10T19:13:00.895Z,8.10
2019-01-10T19:18:06.150Z,9.03
2019-01-10T19:23:12.087Z,8.50
2019-01-10T19:28:17.830Z,6.43
2019-01-10T19:33:23.070Z,6.20
2019-01-10T19:38:28.832Z,6.00
2019-01-10T19:43:34.246Z,8.07
2019-01-10T19:48:39.830Z,8.00
2019-01-10T19:53:45.806Z,6.73
2019-01-10T19:58:51.513Z,6.00
2019-01-10T20:03:57.358Z,6.27
2019-01-10T20:09:03.133Z,5.50
2019-01-10T20:14:08.682Z,5.40
2019-01-10T20:19:13.905Z,5.27
2019-01-10T20:24:19.482Z,4.40
2019-01-10T20:29:25.220Z,4.87
2019-01-10T20:34:30.991Z,6.07
2019-01-10T20:39:36.746Z,5.20
2019-01-10T20:44:42.664Z,5.33
2019-01-10T20:49:48.079Z,6.63
2019-01-10T20:54:53.619Z,6.17
2019-01-10T20:59:59.363Z,6.80
2019-01-10T21:05:05.002Z,6.23
2019-01-10T21:10:12.284Z,5.60
2019-01-10T21:15:21.205Z,4.70
2019-01-10T21:20:26.434Z,4.87
2019-01-10T21:25:32.198Z,5.47
2019-01-10T21:30:37.971Z,5.70
2019-01-10T21:35:43.715Z,6.67
2019-01-10T21:40:49.509Z,5.97
2019-01-10T21:45:55.456Z,6.93
2019-01-10T21:51:00.650Z,6.03
2019-01-10T21:56:06.345Z,7.07
2019-01-10T22:01:12.102Z,6.37
2019-01-10T22:06:17.319Z,6.40
2019-01-10T22:11:22.570Z,8.27
2019-01-10T22:16:28.165Z,9.97
2019-01-10T22:21:33.508Z,10.70
2019-01-10T22:26:39.297Z,9.03
2019-01-10T22:31:45.037Z,7.80
2019-01-10T22:36:50.870Z,7.73
2019-01-10T22:41:56.278Z,7.10
2019-01-10T22:47:01.514Z,6.87
2019-01-10T22:52:07.149Z,6.57
2019-01-10T22:57:12.351Z,7.30
2019-01-10T23:02:18.163Z,6.07
2019-01-10T23:07:24.518Z,6.20
2019-01-10T23:12:35.048Z,5.70
2019-01-10T23:17:55.095Z,6.07
2019-01-10T23:23:04.910Z,6.20
2019-01-10T23:28:10.367Z,5.30
2019-01-10T23:33:15.796Z,5.67
2019-01-10T23:38:22.735Z,5.50
2019-01-10T23:43:28.513Z,5.27
2019-01-10T23:48:34.081Z,5.03
2019-01-10T23:53:39.332Z,5.03
2019-01-10T23:58:44.716Z,4.77
